createdAt,value
2018-01-16T00:00:24.370Z,7.0
2018-01-16T00:01:25.978Z,7.1
2018-01-16T00:02:27.578Z,7.0
2018-01-16T00:03:29.663Z,7.0
2018-01-16T00:04:31.292Z,7.1
2018-01-16T00:05:33.033Z,7.0
2018-01-16T00:06:34.643Z,7.0
2018-01-16T00:07:36.511Z,7.0
2018-01-16T00:08:38.215Z,7.0
2018-01-16T00:09:40.014Z,7.1
2018-01-16T00:10:41.701Z,7.0
2018-01-16T00:11:43.507Z,7.0
2018-01-16T00:12:45.304Z,7.1
2018-01-16T00:13:46.911Z,7.1
2018-01-16T00:14:48.520Z,7.1
2018-01-16T00:15:50.174Z,7.1
2018-01-16T00:16:52.390Z,7.0
2018-01-16T00:17:54.090Z,7.0
2018-01-16T00:18:55.657Z,7.0
2018-01-16T00:19:57.265Z,7.0
2018-01-16T00:20:58.875Z,7.1
2018-01-16T00:22:00.746Z,7.1
2018-01-16T00:23:02.358Z,7.1
2018-01-16T00:24:03.964Z,7.1
2018-01-16T00:25:05.866Z,7.1
2018-01-16T00:26:07.477Z,7.0
2018-01-16T00:27:09.084Z,7.1
2018-01-16T00:28:10.699Z,6.9
2018-01-16T00:29:12.987Z,7.1
2018-01-16T00:30:14.741Z,7.1
2018-01-16T00:31:16.352Z,7.1
2018-01-16T00:32:18.070Z,7.1
2018-01-16T00:33:19.968Z,7.1
2018-01-16T00:34:21.897Z,7.1
2018-01-16T00:35:23.517Z,7.1
2018-01-16T00:36:25.374Z,7.1
2018-01-16T00:37:26.984Z,7.1
2018-01-16T00:38:28.694Z,7.1
2018-01-16T00:39:30.305Z,7.1
2018-01-16T00:40:31.914Z,7.0
2018-01-16T00:41:34.257Z,7.0
2018-01-16T00:42:35.873Z,7.1
2018-01-16T00:43:37.474Z,6.9
2018-01-16T00:44:39.473Z,7.0
2018-01-16T00:45:41.076Z,7.1
2018-01-16T00:46:42.681Z,7.0
2018-01-16T00:47:44.489Z,7.1
2018-01-16T00:48:46.207Z,7.0
2018-01-16T00:49:48.174Z,6.9
2018-01-16T00:50:51.057Z,7.1
2018-01-16T00:51:52.666Z,7.1
2018-01-16T00:52:54.639Z,7.1
2018-01-16T00:53:56.257Z,7.1
2018-01-16T00:54:58.041Z,7.0
2018-01-16T00:56:00.097Z,7.0
2018-01-16T00:57:01.714Z,7.0
2018-01-16T00:58:03.314Z,7.0
2018-01-16T00:59:04.916Z,7.1
2018-01-16T01:00:06.528Z,7.1
2018-01-16T01:01:08.138Z,7.0
2018-01-16T01:02:10.367Z,7.0
2018-01-16T01:03:11.985Z,6.8
2018-01-16T01:04:13.583Z,6.9
2018-01-16T01:05:15.197Z,6.9
2018-01-16T01:06:16.803Z,7.0
2018-01-16T01:07:18.413Z,6.8
2018-01-16T01:08:20.015Z,6.9
2018-01-16T01:09:21.620Z,6.9
2018-01-16T01:10:23.231Z,6.9
2018-01-16T01:11:24.835Z,6.8
2018-01-16T01:12:26.438Z,6.9
2018-01-16T01:13:28.050Z,6.8
2018-01-16T01:14:29.657Z,6.9
2018-01-16T01:15:31.266Z,6.7
2018-01-16T01:16:32.870Z,6.8
2018-01-16T01:17:34.475Z,7.0
2018-01-16T01:18:36.086Z,6.9
2018-01-16T01:19:37.692Z,6.8
2018-01-16T01:20:39.297Z,6.9
2018-01-16T01:21:40.900Z,6.8
2018-01-16T01:22:42.514Z,6.8
2018-01-16T01:23:44.122Z,6.9
2018-01-16T01:24:45.727Z,6.8
2018-01-16T01:25:47.339Z,6.6
2018-01-16T01:26:48.942Z,6.7
2018-01-16T01:27:50.545Z,6.7
2018-01-16T01:28:52.149Z,6.6
2018-01-16T01:29:53.756Z,6.7
2018-01-16T01:30:55.363Z,6.7
2018-01-16T01:31:56.974Z,6.7
2018-01-16T01:32:58.579Z,6.7
2018-01-16T01:34:00.187Z,6.7
2018-01-16T01:35:01.792Z,6.6
2018-01-16T01:36:03.399Z,6.7
2018-01-16T01:37:05.002Z,6.6
2018-01-16T01:38:06.614Z,6.6
2018-01-16T01:39:08.222Z,6.6
2018-01-16T01:40:09.834Z,6.8
2018-01-16T01:41:11.437Z,6.7
2018-01-16T01:42:13.039Z,6.7
2018-01-16T01:43:14.649Z,6.6
2018-01-16T01:44:16.259Z,6.7
2018-01-16T01:45:17.869Z,6.8
2018-01-16T01:46:19.483Z,6.7
2018-01-16T01:47:21.087Z,6.7
2018-01-16T01:48:22.696Z,6.7
2018-01-16T01:49:24.301Z,6.8
2018-01-16T01:50:25.905Z,6.7
2018-01-16T01:51:27.521Z,6.7
2018-01-16T01:52:29.119Z,6.5
2018-01-16T01:53:30.729Z,6.6
2018-01-16T01:54:32.334Z,6.5
2018-01-16T01:55:33.943Z,6.6
2018-01-16T01:56:35.546Z,6.7
2018-01-16T01:57:37.156Z,6.5
2018-01-16T01:58:38.760Z,6.6
2018-01-16T01:59:40.371Z,6.6
2018-01-16T02:00:41.976Z,6.5
2018-01-16T02:01:43.582Z,6.8
2018-01-16T02:02:45.186Z,6.6
2018-01-16T02:03:46.794Z,6.5
2018-01-16T02:04:48.403Z,6.6
2018-01-16T02:05:50.011Z,6.7
2018-01-16T02:06:51.620Z,6.6
2018-01-16T02:07:53.223Z,6.5
2018-01-16T02:08:54.836Z,6.7
2018-01-16T02:09:56.442Z,6.6
2018-01-16T02:10:58.044Z,6.6
2018-01-16T02:11:59.649Z,6.7
2018-01-16T02:13:01.254Z,6.7
2018-01-16T02:14:02.865Z,6.7
2018-01-16T02:15:04.476Z,6.7
2018-01-16T02:16:06.083Z,6.6
2018-01-16T02:17:07.686Z,6.7
2018-01-16T02:18:09.294Z,6.4
2018-01-16T02:19:10.902Z,6.6
2018-01-16T02:20:12.506Z,6.7
2018-01-16T02:21:14.115Z,6.6
2018-01-16T02:22:15.725Z,6.6
2018-01-16T02:23:17.335Z,6.6
2018-01-16T02:24:18.935Z,6.5
2018-01-16T02:25:20.547Z,6.6
2018-01-16T02:26:22.153Z,6.6
2018-01-16T02:27:23.755Z,6.6
2018-01-16T02:28:25.363Z,6.7
2018-01-16T02:29:26.969Z,6.6
2018-01-16T02:30:28.583Z,6.5
2018-01-16T02:31:30.186Z,6.6
2018-01-16T02:32:31.796Z,6.7
2018-01-16T02:33:33.404Z,6.6
2018-01-16T02:34:35.010Z,6.7
2018-01-16T02:35:36.617Z,6.8
2018-01-16T02:36:38.227Z,6.7
2018-01-16T02:37:39.836Z,6.7
2018-01-16T02:38:41.438Z,6.7
2018-01-16T02:39:43.049Z,6.8
2018-01-16T02:40:44.653Z,6.7
2018-01-16T02:41:46.259Z,6.6
2018-01-16T02:42:47.867Z,6.6
2018-01-16T02:43:49.475Z,6.7
2018-01-16T02:44:51.083Z,6.6
2018-01-16T02:45:52.693Z,6.6
2018-01-16T02:46:54.292Z,6.5
2018-01-16T02:47:55.896Z,6.6
2018-01-16T02:48:57.507Z,6.5
2018-01-16T02:49:59.110Z,6.6
2018-01-16T02:51:00.725Z,6.6
2018-01-16T02:52:02.331Z,6.7
2018-01-16T02:53:03.940Z,6.5
2018-01-16T02:54:05.542Z,6.6
2018-01-16T02:55:07.150Z,6.5
2018-01-16T02:56:08.753Z,6.5
2018-01-16T02:57:10.362Z,6.6
2018-01-16T02:58:11.976Z,6.5
2018-01-16T02:59:13.583Z,6.5
2018-01-16T03:00:15.191Z,6.6
2018-01-16T03:01:16.848Z,6.6
2018-01-16T03:02:18.400Z,6.7
2018-01-16T03:03:20.009Z,6.5
2018-01-16T03:04:21.612Z,6.6
2018-01-16T03:05:23.225Z,6.6
2018-01-16T03:06:24.834Z,6.7
2018-01-16T03:07:26.437Z,6.6
2018-01-16T03:08:28.042Z,6.6
2018-01-16T03:09:29.652Z,6.7
2018-01-16T03:10:31.261Z,6.7
2018-01-16T03:11:32.867Z,6.6
2018-01-16T03:12:34.476Z,6.7
2018-01-16T03:13:36.085Z,6.5
2018-01-16T03:14:37.690Z,6.7
2018-01-16T03:15:39.291Z,6.7
2018-01-16T03:16:40.951Z,6.6
2018-01-16T03:17:42.509Z,6.7
2018-01-16T03:18:44.119Z,6.7
2018-01-16T03:19:45.724Z,6.6
2018-01-16T03:20:47.332Z,6.7
2018-01-16T03:21:48.940Z,6.8
2018-01-16T03:22:50.542Z,6.8
2018-01-16T03:23:52.153Z,6.9
2018-01-16T03:24:53.756Z,6.8
2018-01-16T03:25:55.367Z,6.7
2018-01-16T03:26:56.976Z,6.8
2018-01-16T03:27:58.587Z,6.9
2018-01-16T03:29:00.194Z,6.8
2018-01-16T03:30:01.798Z,6.9
2018-01-16T03:31:03.408Z,6.9
2018-01-16T03:32:05.017Z,6.8
2018-01-16T03:33:06.618Z,6.9
2018-01-16T03:34:08.225Z,6.8
2018-01-16T03:35:09.838Z,6.9
2018-01-16T03:36:11.437Z,6.9
2018-01-16T03:37:13.049Z,6.7
2018-01-16T03:38:14.656Z,6.8
2018-01-16T03:39:16.263Z,6.7
2018-01-16T03:40:17.866Z,6.8
2018-01-16T03:41:19.477Z,6.7
2018-01-16T03:42:21.084Z,6.9
2018-01-16T03:43:22.693Z,6.9
2018-01-16T03:44:24.297Z,6.8
2018-01-16T03:45:25.899Z,6.8
2018-01-16T03:46:27.512Z,6.8
2018-01-16T03:47:29.122Z,6.9
2018-01-16T03:48:30.734Z,6.9
2018-01-16T03:49:32.345Z,7.0
2018-01-16T03:50:33.954Z,6.8
2018-01-16T03:51:35.561Z,6.8
2018-01-16T03:52:37.165Z,6.9
2018-01-16T03:53:38.776Z,6.8
2018-01-16T03:54:40.379Z,6.9
2018-01-16T03:55:41.985Z,6.8
2018-01-16T03:56:43.596Z,6.8
2018-01-16T03:57:45.206Z,6.9
2018-01-16T03:58:46.807Z,6.8
2018-01-16T03:59:48.414Z,6.8
2018-01-16T04:00:50.024Z,6.8
2018-01-16T04:01:51.633Z,6.9
2018-01-16T04:02:53.237Z,7.1
2018-01-16T04:03:54.844Z,6.8
2018-01-16T04:04:56.448Z,6.9
2018-01-16T04:05:58.051Z,7.0
2018-01-16T04:06:59.657Z,6.8
2018-01-16T04:08:01.267Z,6.9
2018-01-16T04:09:02.876Z,6.9
2018-01-16T04:10:04.480Z,6.8
2018-01-16T04:11:06.092Z,6.7
2018-01-16T04:12:07.698Z,6.8
2018-01-16T04:13:09.302Z,6.8
2018-01-16T04:14:10.910Z,6.6
2018-01-16T04:15:12.521Z,6.6
2018-01-16T04:16:14.132Z,6.5
2018-01-16T04:17:15.736Z,6.5
2018-01-16T04:18:17.349Z,6.1
2018-01-16T04:19:18.956Z,6.1
2018-01-16T04:20:20.563Z,6.0
2018-01-16T04:21:22.170Z,5.9
2018-01-16T04:22:23.783Z,5.8
2018-01-16T04:23:25.381Z,5.8
2018-01-16T04:24:26.992Z,5.7
2018-01-16T04:25:28.597Z,5.7
2018-01-16T04:26:30.199Z,5.8
2018-01-16T04:27:31.810Z,5.7
2018-01-16T04:28:33.412Z,5.8
2018-01-16T04:29:35.024Z,5.9
2018-01-16T04:30:36.625Z,5.6
2018-01-16T04:31:38.238Z,5.8
2018-01-16T04:32:39.844Z,5.7
2018-01-16T04:33:41.451Z,5.8
2018-01-16T04:34:43.058Z,5.8
2018-01-16T04:35:44.661Z,5.7
2018-01-16T04:36:46.275Z,5.8
2018-01-16T04:37:47.883Z,5.7
2018-01-16T04:38:49.493Z,5.7
2018-01-16T04:39:51.103Z,5.7
2018-01-16T04:40:52.710Z,5.9
2018-01-16T04:41:54.314Z,5.7
2018-01-16T04:42:55.926Z,5.8
2018-01-16T04:43:57.528Z,5.8
2018-01-16T04:44:59.138Z,5.8
2018-01-16T04:46:00.743Z,5.8
2018-01-16T04:47:02.355Z,5.7
2018-01-16T04:48:03.956Z,5.8
2018-01-16T04:49:05.563Z,5.7
2018-01-16T04:50:07.167Z,5.8
2018-01-16T04:51:08.775Z,6.0
2018-01-16T04:52:10.385Z,6.0
2018-01-16T04:53:11.992Z,6.1
2018-01-16T04:54:13.596Z,6.3
2018-01-16T04:55:15.198Z,6.2
2018-01-16T04:56:16.801Z,6.1
2018-01-16T04:57:18.408Z,6.1
2018-01-16T04:58:20.018Z,6.2
2018-01-16T04:59:21.626Z,6.3
2018-01-16T05:00:23.230Z,6.4
2018-01-16T05:01:24.838Z,6.4
2018-01-16T05:02:26.444Z,6.3
2018-01-16T05:03:28.049Z,6.4
2018-01-16T05:04:29.655Z,6.4
2018-01-16T05:05:31.261Z,6.5
2018-01-16T05:06:32.873Z,6.4
2018-01-16T05:07:34.477Z,6.5
2018-01-16T05:08:36.086Z,6.5
2018-01-16T05:09:37.694Z,6.4
2018-01-16T05:10:39.300Z,6.5
2018-01-16T05:11:40.913Z,6.5
2018-01-16T05:12:42.510Z,6.6
2018-01-16T05:13:44.122Z,6.6
2018-01-16T05:14:45.725Z,6.5
2018-01-16T05:15:47.333Z,6.6
2018-01-16T05:16:48.942Z,6.5
2018-01-16T05:17:50.549Z,6.5
2018-01-16T05:18:52.154Z,6.5
2018-01-16T05:19:53.755Z,6.7
2018-01-16T05:20:55.366Z,6.6
2018-01-16T05:21:56.975Z,6.7
2018-01-16T05:22:58.580Z,6.7
2018-01-16T05:24:00.190Z,6.6
2018-01-16T05:25:01.798Z,6.6
2018-01-16T05:26:03.409Z,6.7
2018-01-16T05:27:05.012Z,6.6
2018-01-16T05:28:06.615Z,6.7
2018-01-16T05:29:08.228Z,6.7
2018-01-16T05:30:09.834Z,6.6
2018-01-16T05:31:11.435Z,6.5
2018-01-16T05:32:13.041Z,6.7
2018-01-16T05:33:14.652Z,6.6
2018-01-16T05:34:16.261Z,6.6
2018-01-16T05:35:17.864Z,6.7
2018-01-16T05:36:19.473Z,6.7
2018-01-16T05:37:21.086Z,6.6
2018-01-16T05:38:22.693Z,6.6
2018-01-16T05:39:24.297Z,6.7
2018-01-16T05:40:25.900Z,6.5
2018-01-16T05:41:27.511Z,6.6
2018-01-16T05:42:29.118Z,6.7
2018-01-16T05:43:30.724Z,6.6
2018-01-16T05:44:32.329Z,6.7
2018-01-16T05:45:33.938Z,6.8
2018-01-16T05:46:35.547Z,6.6
2018-01-16T05:47:37.152Z,6.5
2018-01-16T05:48:38.760Z,6.5
2018-01-16T05:49:40.367Z,6.5
2018-01-16T05:50:41.971Z,6.6
2018-01-16T05:51:43.581Z,6.7
2018-01-16T05:52:45.189Z,6.6
2018-01-16T05:53:46.792Z,6.6
2018-01-16T05:54:48.400Z,6.4
2018-01-16T05:55:50.010Z,6.7
2018-01-16T05:56:51.617Z,6.7
2018-01-16T05:57:53.222Z,6.7
2018-01-16T05:58:54.827Z,6.7
2018-01-16T05:59:56.437Z,6.7
2018-01-16T06:00:58.044Z,6.6
2018-01-16T06:01:59.648Z,6.8
2018-01-16T06:03:01.252Z,6.7
2018-01-16T06:04:02.862Z,6.7
2018-01-16T06:05:04.468Z,6.6
2018-01-16T06:06:06.078Z,6.7
2018-01-16T06:07:07.680Z,6.6
2018-01-16T06:08:09.289Z,6.6
2018-01-16T06:09:10.892Z,6.6
2018-01-16T06:10:12.502Z,6.6
2018-01-16T06:11:14.106Z,6.7
2018-01-16T06:12:15.718Z,6.7
2018-01-16T06:13:17.320Z,6.7
2018-01-16T06:14:18.930Z,6.7
2018-01-16T06:15:20.532Z,6.7
2018-01-16T06:16:22.143Z,6.7
2018-01-16T06:17:23.747Z,6.7
2018-01-16T06:18:25.358Z,6.6
2018-01-16T06:19:26.964Z,6.6
2018-01-16T06:20:28.580Z,6.6
2018-01-16T06:21:30.186Z,6.6
2018-01-16T06:22:31.792Z,6.6
2018-01-16T06:23:33.401Z,6.6
2018-01-16T06:24:35.005Z,6.7
2018-01-16T06:25:36.620Z,6.7
2018-01-16T06:26:38.222Z,6.9
2018-01-16T06:27:39.836Z,6.8
2018-01-16T06:28:41.441Z,6.8
2018-01-16T06:29:43.050Z,6.8
2018-01-16T06:30:44.652Z,6.8
2018-01-16T06:31:46.265Z,6.9
2018-01-16T06:32:47.869Z,6.9
2018-01-16T06:33:49.482Z,6.8
2018-01-16T06:34:51.088Z,6.8
2018-01-16T06:35:52.697Z,6.9
2018-01-16T06:36:54.304Z,6.9
2018-01-16T06:37:55.915Z,7.1
2018-01-16T06:38:57.520Z,6.8
2018-01-16T06:39:59.126Z,6.9
2018-01-16T06:41:00.737Z,6.9
2018-01-16T06:42:02.346Z,6.8
2018-01-16T06:43:03.954Z,6.8
2018-01-16T06:44:05.560Z,6.8
2018-01-16T06:45:07.174Z,7.0
2018-01-16T06:46:08.775Z,6.8
2018-01-16T06:47:10.398Z,7.0
2018-01-16T06:48:12.009Z,7.0
2018-01-16T06:49:13.615Z,6.9
2018-01-16T06:50:15.219Z,6.9
2018-01-16T06:51:16.828Z,7.0
2018-01-16T06:52:18.466Z,6.9
2018-01-16T06:53:20.070Z,6.8
2018-01-16T06:54:21.678Z,6.7
2018-01-16T06:55:23.291Z,6.8
2018-01-16T06:56:24.897Z,6.9
2018-01-16T06:57:26.504Z,6.8
2018-01-16T06:58:28.108Z,6.8
2018-01-16T06:59:29.718Z,6.8
2018-01-16T07:00:31.321Z,6.8
2018-01-16T07:01:32.932Z,6.9
2018-01-16T07:02:34.542Z,6.8
2018-01-16T07:03:36.147Z,6.9
2018-01-16T07:04:37.751Z,7.0
2018-01-16T07:05:39.362Z,6.8
2018-01-16T07:06:40.970Z,6.8
2018-01-16T07:07:42.576Z,6.8
2018-01-16T07:08:44.180Z,7.0
2018-01-16T07:09:45.797Z,7.0
2018-01-16T07:10:47.407Z,6.9
2018-01-16T07:11:49.009Z,6.9
2018-01-16T07:12:50.619Z,6.8
2018-01-16T07:13:52.224Z,6.8
2018-01-16T07:14:53.837Z,6.9
2018-01-16T07:15:55.442Z,6.8
2018-01-16T07:16:57.055Z,6.8
2018-01-16T07:17:58.661Z,6.9
2018-01-16T07:19:00.269Z,6.8
2018-01-16T07:20:01.881Z,6.8
2018-01-16T07:21:03.485Z,6.8
2018-01-16T07:22:05.098Z,6.8
2018-01-16T07:23:06.704Z,6.9
2018-01-16T07:24:08.315Z,7.0
2018-01-16T07:25:09.923Z,6.9
2018-01-16T07:26:11.534Z,6.8
2018-01-16T07:27:13.143Z,6.8
2018-01-16T07:28:14.749Z,6.8
2018-01-16T07:29:16.356Z,6.8
2018-01-16T07:30:17.970Z,6.9
2018-01-16T07:31:19.578Z,6.9
2018-01-16T07:32:21.185Z,7.0
2018-01-16T07:33:22.793Z,7.1
2018-01-16T07:34:24.406Z,7.2
2018-01-16T07:35:26.015Z,7.2
2018-01-16T07:36:27.617Z,7.0
2018-01-16T07:37:29.228Z,7.0
2018-01-16T07:38:30.841Z,6.7
2018-01-16T07:39:32.451Z,6.9
2018-01-16T07:40:34.056Z,6.7
2018-01-16T07:41:35.666Z,6.8
2018-01-16T07:42:37.271Z,6.6
2018-01-16T07:43:38.883Z,6.6
2018-01-16T07:44:40.491Z,6.6
2018-01-16T07:45:42.099Z,6.6
2018-01-16T07:46:43.714Z,6.6
2018-01-16T07:47:45.329Z,6.6
2018-01-16T07:48:46.927Z,6.5
2018-01-16T07:49:48.535Z,6.6
2018-01-16T07:50:50.150Z,6.5
2018-01-16T07:51:51.761Z,6.5
2018-01-16T07:52:53.372Z,6.5
2018-01-16T07:53:54.984Z,6.4
2018-01-16T07:54:56.588Z,6.4
2018-01-16T07:55:58.200Z,6.2
2018-01-16T07:56:59.812Z,6.3
2018-01-16T07:58:01.418Z,6.1
2018-01-16T07:59:03.034Z,6.1
2018-01-16T08:00:04.641Z,6.2
2018-01-16T08:01:06.256Z,6.0
2018-01-16T08:02:07.863Z,6.0
2018-01-16T08:03:09.469Z,6.1
2018-01-16T08:04:11.075Z,6.0
2018-01-16T08:05:12.692Z,6.1
2018-01-16T08:06:14.302Z,5.9
2018-01-16T08:07:15.912Z,6.0
2018-01-16T08:08:17.520Z,5.9
2018-01-16T08:09:19.134Z,5.9
2018-01-16T08:10:20.747Z,5.8
2018-01-16T08:11:22.357Z,6.0
2018-01-16T08:12:23.965Z,5.8
2018-01-16T08:13:25.578Z,5.9
2018-01-16T08:14:27.196Z,5.9
2018-01-16T08:15:28.803Z,5.8
2018-01-16T08:16:30.414Z,5.9
2018-01-16T08:17:32.029Z,5.9
2018-01-16T08:18:33.635Z,5.9
2018-01-16T08:19:35.248Z,5.8
2018-01-16T08:20:36.856Z,6.0
2018-01-16T08:21:38.472Z,5.8
2018-01-16T08:22:40.080Z,5.9
2018-01-16T08:23:41.692Z,5.9
2018-01-16T08:24:43.297Z,5.8
2018-01-16T08:25:44.905Z,5.9
2018-01-16T08:26:46.517Z,5.9
2018-01-16T08:27:48.128Z,5.9
2018-01-16T08:28:49.744Z,5.9
2018-01-16T08:29:51.353Z,6.0
2018-01-16T08:30:52.959Z,6.0
2018-01-16T08:31:54.573Z,6.0
2018-01-16T08:32:56.183Z,5.9
2018-01-16T08:33:57.792Z,6.1
2018-01-16T08:34:59.406Z,6.1
2018-01-16T08:36:01.016Z,6.2
2018-01-16T08:37:02.631Z,6.3
2018-01-16T08:38:04.240Z,6.3
2018-01-16T08:39:05.854Z,6.2
2018-01-16T08:40:07.463Z,6.5
2018-01-16T08:41:09.080Z,6.3
2018-01-16T08:42:10.695Z,6.5
2018-01-16T08:43:12.308Z,6.5
2018-01-16T08:44:13.920Z,6.7
2018-01-16T08:45:15.527Z,6.7
2018-01-16T08:46:17.144Z,6.7
2018-01-16T08:47:18.757Z,6.6
2018-01-16T08:48:21.089Z,6.8
2018-01-16T08:49:22.697Z,6.9
2018-01-16T08:50:24.314Z,6.9
2018-01-16T08:51:25.929Z,7.0
2018-01-16T08:52:27.537Z,6.9
2018-01-16T08:53:29.148Z,6.9
2018-01-16T08:54:30.764Z,7.1
2018-01-16T08:55:32.380Z,6.9
2018-01-16T08:56:33.998Z,6.9
2018-01-16T08:57:35.602Z,6.8
2018-01-16T08:58:37.218Z,6.8
2018-01-16T08:59:38.823Z,6.9
2018-01-16T09:00:40.433Z,6.8
2018-01-16T09:01:42.046Z,6.7
2018-01-16T09:02:43.657Z,6.8
2018-01-16T09:03:45.264Z,6.8
2018-01-16T09:04:46.880Z,6.8
2018-01-16T09:05:48.489Z,6.8
2018-01-16T09:06:50.101Z,6.7
2018-01-16T09:07:51.713Z,6.7
2018-01-16T09:08:53.327Z,6.7
2018-01-16T09:09:54.934Z,6.8
2018-01-16T09:10:56.551Z,6.7
2018-01-16T09:11:58.162Z,6.8
2018-01-16T09:12:59.780Z,6.8
2018-01-16T09:14:01.392Z,6.8
2018-01-16T09:15:02.999Z,6.7
2018-01-16T09:16:04.613Z,6.8
2018-01-16T09:17:06.227Z,6.7
2018-01-16T09:18:07.838Z,6.9
2018-01-16T09:19:09.451Z,6.8
2018-01-16T09:20:11.068Z,7.2
2018-01-16T09:21:12.675Z,7.0
2018-01-16T09:22:14.287Z,7.1
2018-01-16T09:23:15.896Z,7.1
2018-01-16T09:24:17.513Z,7.0
2018-01-16T09:25:19.123Z,7.0
2018-01-16T09:26:20.740Z,7.0
2018-01-16T09:27:22.349Z,7.0
2018-01-16T09:28:23.965Z,7.1
2018-01-16T09:29:25.572Z,7.1
2018-01-16T09:30:27.189Z,7.1
2018-01-16T09:31:28.799Z,7.2
2018-01-16T09:32:30.413Z,7.2
2018-01-16T09:33:32.024Z,7.1
2018-01-16T09:34:33.638Z,7.0
2018-01-16T09:35:35.252Z,7.1
2018-01-16T09:36:36.858Z,7.0
2018-01-16T09:37:38.471Z,7.2
2018-01-16T09:38:40.079Z,7.1
2018-01-16T09:39:41.691Z,7.1
2018-01-16T09:40:43.310Z,7.2
2018-01-16T09:41:44.962Z,7.0
2018-01-16T09:42:46.524Z,7.1
2018-01-16T09:43:48.139Z,7.2
2018-01-16T09:44:49.751Z,7.0
2018-01-16T09:45:51.359Z,7.1
2018-01-16T09:46:52.968Z,7.1
2018-01-16T09:47:54.587Z,7.2
2018-01-16T09:48:56.203Z,7.1
2018-01-16T09:49:57.813Z,7.1
2018-01-16T09:50:59.421Z,6.9
2018-01-16T09:52:01.042Z,7.1
2018-01-16T09:53:02.651Z,6.8
2018-01-16T09:54:04.261Z,6.8
2018-01-16T09:55:05.879Z,6.9
2018-01-16T09:56:07.490Z,6.7
2018-01-16T09:57:09.104Z,6.8
2018-01-16T09:58:10.712Z,6.8
2018-01-16T09:59:12.327Z,6.8
2018-01-16T10:00:13.934Z,6.7
2018-01-16T10:01:15.546Z,6.6
2018-01-16T10:02:17.154Z,6.5
2018-01-16T10:03:18.765Z,6.0
2018-01-16T10:04:20.376Z,5.7
2018-01-16T10:05:21.982Z,5.5
2018-01-16T10:06:23.596Z,5.5
2018-01-16T10:07:25.202Z,5.1
2018-01-16T10:08:26.816Z,4.9
2018-01-16T10:09:28.423Z,4.7
2018-01-16T10:10:30.034Z,4.7
2018-01-16T10:11:31.645Z,4.5
2018-01-16T10:12:33.250Z,4.5
2018-01-16T10:13:34.856Z,4.3
2018-01-16T10:14:36.469Z,4.2
2018-01-16T10:15:38.083Z,4.1
2018-01-16T10:16:39.695Z,4.0
2018-01-16T10:17:41.306Z,4.0
2018-01-16T10:18:42.915Z,4.1
2018-01-16T10:19:44.525Z,3.9
2018-01-16T10:20:46.134Z,4.0
2018-01-16T10:21:47.746Z,4.0
2018-01-16T10:22:49.356Z,4.0
2018-01-16T10:23:50.969Z,3.9
2018-01-16T10:24:52.576Z,3.9
2018-01-16T10:25:54.186Z,3.9
2018-01-16T10:26:55.792Z,3.8
2018-01-16T10:27:57.404Z,3.7
2018-01-16T10:28:59.014Z,3.9
2018-01-16T10:30:00.621Z,3.7
2018-01-16T10:31:02.238Z,3.8
2018-01-16T10:32:03.852Z,3.8
2018-01-16T10:33:05.462Z,3.8
2018-01-16T10:34:07.066Z,3.8
2018-01-16T10:35:08.680Z,3.8
2018-01-16T10:36:10.289Z,3.9
2018-01-16T10:37:11.903Z,3.8
2018-01-16T10:38:13.519Z,3.8
2018-01-16T10:39:15.130Z,3.8
2018-01-16T10:40:16.736Z,3.9
2018-01-16T10:41:18.378Z,3.9
2018-01-16T10:42:19.966Z,4.0
2018-01-16T10:43:21.575Z,4.0
2018-01-16T10:44:23.188Z,4.0
2018-01-16T10:45:24.802Z,4.0
2018-01-16T10:46:26.412Z,4.0
2018-01-16T10:47:28.020Z,4.0
2018-01-16T10:48:29.629Z,3.9
2018-01-16T10:49:31.244Z,4.0
2018-01-16T10:50:32.847Z,3.9
2018-01-16T10:51:34.460Z,3.9
2018-01-16T10:52:36.075Z,3.9
2018-01-16T10:53:37.685Z,3.9
2018-01-16T10:54:39.292Z,4.0
2018-01-16T10:55:40.948Z,4.0
2018-01-16T10:56:42.524Z,4.0
2018-01-16T10:57:44.126Z,4.1
2018-01-16T10:58:45.734Z,4.0
2018-01-16T10:59:47.354Z,4.0
2018-01-16T11:00:48.960Z,4.2
2018-01-16T11:01:50.573Z,4.0
2018-01-16T11:02:52.180Z,4.1
2018-01-16T11:03:53.793Z,4.2
2018-01-16T11:04:55.401Z,4.1
2018-01-16T11:05:57.013Z,4.3
2018-01-16T11:06:58.623Z,4.2
2018-01-16T11:08:00.238Z,4.5
2018-01-16T11:09:01.845Z,4.5
2018-01-16T11:10:03.508Z,4.7
2018-01-16T11:11:05.067Z,4.7
2018-01-16T11:12:06.682Z,4.7
2018-01-16T11:13:08.291Z,4.8
2018-01-16T11:14:09.905Z,4.8
2018-01-16T11:15:11.516Z,4.8
2018-01-16T11:16:13.127Z,5.1
2018-01-16T11:17:14.742Z,5.0
2018-01-16T11:18:16.349Z,4.9
2018-01-16T11:19:17.962Z,5.0
2018-01-16T11:20:19.570Z,5.0
2018-01-16T11:21:21.185Z,5.2
2018-01-16T11:22:22.792Z,5.1
2018-01-16T11:23:24.407Z,5.0
2018-01-16T11:24:26.012Z,5.1
2018-01-16T11:25:27.627Z,5.2
2018-01-16T11:26:29.235Z,5.1
2018-01-16T11:27:30.850Z,5.2
2018-01-16T11:28:32.462Z,5.3
2018-01-16T11:29:34.076Z,5.2
2018-01-16T11:30:35.683Z,5.3
2018-01-16T11:31:37.296Z,5.2
2018-01-16T11:32:38.904Z,5.1
2018-01-16T11:33:40.515Z,5.1
2018-01-16T11:34:42.130Z,5.3
2018-01-16T11:35:43.745Z,5.1
2018-01-16T11:36:45.356Z,5.1
2018-01-16T11:37:46.965Z,5.2
2018-01-16T11:38:48.577Z,5.2
2018-01-16T11:39:50.195Z,5.2
2018-01-16T11:40:51.798Z,5.2
2018-01-16T11:41:53.408Z,5.2
2018-01-16T11:42:55.026Z,5.2
2018-01-16T11:43:56.640Z,5.1
2018-01-16T11:44:58.251Z,5.2
2018-01-16T11:45:59.856Z,5.2
2018-01-16T11:47:01.471Z,5.2
2018-01-16T11:48:03.085Z,5.2
2018-01-16T11:49:04.694Z,5.3
2018-01-16T11:50:06.311Z,5.3
2018-01-16T11:51:07.921Z,5.3
2018-01-16T11:52:09.531Z,5.2
2018-01-16T11:53:11.144Z,5.3
2018-01-16T11:54:12.757Z,5.4
2018-01-16T11:55:14.367Z,5.4
2018-01-16T11:56:15.976Z,5.3
2018-01-16T11:57:17.594Z,5.5
2018-01-16T11:58:19.209Z,5.4
2018-01-16T11:59:20.816Z,5.3
2018-01-16T12:00:22.427Z,5.5
2018-01-16T12:01:24.041Z,5.7
2018-01-16T12:02:25.656Z,5.9
2018-01-16T12:03:27.267Z,6.1
2018-01-16T12:04:28.880Z,6.0
2018-01-16T12:05:30.496Z,6.0
2018-01-16T12:06:32.109Z,6.1
2018-01-16T12:07:33.716Z,6.1
2018-01-16T12:08:35.329Z,6.0
2018-01-16T12:09:36.939Z,5.9
2018-01-16T12:10:38.554Z,5.8
2018-01-16T12:11:40.164Z,6.0
2018-01-16T12:12:41.782Z,5.9
2018-01-16T12:13:43.389Z,5.8
2018-01-16T12:14:45.004Z,6.0
2018-01-16T12:15:46.612Z,5.9
2018-01-16T12:16:48.222Z,6.0
2018-01-16T12:17:49.833Z,5.9
2018-01-16T12:18:51.444Z,5.9
2018-01-16T12:19:53.058Z,6.1
2018-01-16T12:20:54.668Z,6.1
2018-01-16T12:21:56.283Z,6.0
2018-01-16T12:22:57.895Z,6.0
2018-01-16T12:23:59.510Z,6.0
2018-01-16T12:25:01.123Z,6.0
2018-01-16T12:26:02.738Z,6.0
2018-01-16T12:27:04.348Z,6.0
2018-01-16T12:28:05.962Z,6.1
2018-01-16T12:29:07.579Z,6.2
2018-01-16T12:30:09.183Z,6.2
2018-01-16T12:31:10.793Z,6.3
2018-01-16T12:32:12.410Z,6.1
2018-01-16T12:33:14.024Z,6.2
2018-01-16T12:34:15.640Z,6.1
2018-01-16T12:35:17.253Z,6.4
2018-01-16T12:36:18.866Z,6.2
2018-01-16T12:37:20.481Z,6.3
2018-01-16T12:38:22.088Z,6.3
2018-01-16T12:39:23.700Z,6.3
2018-01-16T12:40:25.319Z,6.4
2018-01-16T12:41:26.932Z,6.5
2018-01-16T12:42:28.540Z,6.5
2018-01-16T12:43:30.152Z,6.6
2018-01-16T12:44:31.770Z,6.9
2018-01-16T12:45:33.383Z,7.0
2018-01-16T12:46:34.993Z,7.1
2018-01-16T12:47:36.607Z,7.2
2018-01-16T12:48:38.225Z,7.2
2018-01-16T12:49:39.834Z,7.4
2018-01-16T12:50:41.447Z,7.6
2018-01-16T12:51:43.062Z,7.7
2018-01-16T12:52:44.677Z,7.4
2018-01-16T12:53:46.287Z,7.7
2018-01-16T12:54:47.905Z,7.9
2018-01-16T12:55:49.518Z,7.8
2018-01-16T12:56:51.135Z,7.4
2018-01-16T12:57:52.761Z,7.3
2018-01-16T12:58:54.361Z,7.1
2018-01-16T12:59:55.968Z,6.9
2018-01-16T13:00:57.587Z,6.8
2018-01-16T13:01:59.199Z,6.8
2018-01-16T13:03:00.815Z,6.8
2018-01-16T13:04:02.428Z,6.8
2018-01-16T13:05:04.043Z,6.8
2018-01-16T13:06:05.658Z,6.6
2018-01-16T13:07:07.272Z,6.6
2018-01-16T13:08:08.888Z,6.6
2018-01-16T13:09:10.497Z,6.5
2018-01-16T13:10:12.116Z,6.5
2018-01-16T13:11:13.722Z,6.7
2018-01-16T13:12:15.335Z,6.5
2018-01-16T13:13:16.950Z,6.5
2018-01-16T13:14:18.563Z,6.4
2018-01-16T13:15:20.177Z,6.6
2018-01-16T13:16:21.789Z,6.4
2018-01-16T13:17:23.404Z,6.5
2018-01-16T13:18:25.011Z,6.5
2018-01-16T13:19:26.667Z,6.3
2018-01-16T13:20:28.234Z,6.3
2018-01-16T13:21:29.849Z,6.4
2018-01-16T13:22:31.459Z,6.2
2018-01-16T13:23:33.073Z,6.3
2018-01-16T13:24:34.685Z,6.2
2018-01-16T13:25:36.296Z,6.3
2018-01-16T13:26:37.906Z,6.1
2018-01-16T13:27:39.525Z,6.2
2018-01-16T13:28:41.135Z,6.2
2018-01-16T13:29:42.745Z,6.2
2018-01-16T13:30:44.362Z,6.1
2018-01-16T13:31:45.973Z,6.1
2018-01-16T13:32:47.588Z,6.2
2018-01-16T13:33:49.198Z,6.0
2018-01-16T13:34:50.814Z,6.0
2018-01-16T13:35:52.422Z,5.9
2018-01-16T13:36:54.039Z,5.9
2018-01-16T13:37:55.651Z,5.9
2018-01-16T13:38:57.269Z,6.0
2018-01-16T13:39:58.883Z,6.3
2018-01-16T13:41:00.495Z,6.5
2018-01-16T13:42:02.110Z,6.4
2018-01-16T13:43:03.723Z,6.5
2018-01-16T13:44:05.332Z,6.6
2018-01-16T13:45:06.949Z,6.5
2018-01-16T13:46:08.559Z,6.2
2018-01-16T13:47:10.168Z,6.3
2018-01-16T13:48:11.783Z,6.1
2018-01-16T13:49:13.394Z,6.0
2018-01-16T13:50:15.003Z,6.0
2018-01-16T13:51:16.617Z,6.0
2018-01-16T13:52:18.235Z,5.9
2018-01-16T13:53:19.848Z,6.2
2018-01-16T13:54:21.461Z,6.1
2018-01-16T13:55:23.069Z,6.0
2018-01-16T13:56:24.680Z,5.9
2018-01-16T13:57:26.290Z,5.9
2018-01-16T13:58:27.907Z,5.9
2018-01-16T13:59:29.520Z,6.0
2018-01-16T14:00:31.136Z,6.0
2018-01-16T14:01:32.745Z,6.1
2018-01-16T14:02:34.358Z,6.0
2018-01-16T14:03:35.970Z,6.1
2018-01-16T14:04:37.577Z,6.1
2018-01-16T14:05:39.201Z,6.1
2018-01-16T14:06:40.818Z,6.0
2018-01-16T14:07:42.432Z,6.1
2018-01-16T14:08:44.039Z,6.0